Weather observations for the past three days for
Pompano Beach, Pompano Beach Airpark
Metric (Imperial)
Date Time (edt) Wind (kph) Vis. (km) Weather Sky Cond. Temperature (ºC) Relative Humidity Wind Chill (°C) Heat Index (°C) Pressure Precipitation (cm)
Air Dwpt 6 hour altimeter (cm) sea level (mb) 1 hr 3 hr 6 hr
Max. Min.
02 15:53 SW 30 G 41 16.09 Fair CLR 35.6 16.1 31% 36 75.79 1010.5
02 14:53 W 31 G 48 16.09 Partly Cloudy SCT060 35.6 16.7 32% 36 75.82 1011.0
02 13:53 S 26 16.09 Mostly Cloudy SCT060 BKN070 34.4 18.9 34.4 26.1 40% 36 75.84 1011.3
02 12:53 SE 20 G 39 16.09 A Few Clouds FEW043 31.7 23.9 63% 37 75.9 1011.8
02 11:53 SE 28 G 39 16.09 Mostly Cloudy BKN039 BKN048 30.6 23.3 65% 35 75.9 1012.0
02 10:53 S 20 G 35 16.09 Mostly Cloudy FEW024 SCT036 BKN045 29.4 22.8 68% 33 75.95 1012.4
02 09:53 S 19 16.09 Fair CLR 30 21.7 61% 33 75.92 1012.1
02 08:53 S 20 16.09 A Few Clouds FEW020 28.3 22.8 72% 32 75.92 1012.1
02 07:53 S 9 16.09 Fair CLR 26.1 21.7 26.1 23.9 77% 28 75.92 1012.2
02 06:53 SW 6 16.09 Mostly Cloudy BKN075 24.4 21.1 82% 25 75.92 1012.2
02 05:53 Calm 16.09 Overcast FEW020 OVC080 25 20.6 77% 26 75.92 1012.2
02 04:53 Calm 16.09 Mostly Cloudy BKN075 24.4 20 77% 25 75.9 1012.0
02 03:53 Calm 16.09 Mostly Cloudy BKN070 24.4 20 77% 25 75.9 1012.0
02 02:53 NW 9 16.09 Fair CLR 24.4 19.4 74% 25 75.92 1012.2
02 01:53 W 6 16.09 Fair CLR 25.6 22.2 27.2 25.6 82% 27 75.92 1012.3
02 00:53 S 6 16.09 Fair CLR 26.1 22.2 79% 28 75.95 1012.6
01 23:53 S 9 16.09 Partly Cloudy SCT027 26.7 22.2 76% 29 76 1013.1
01 22:53 S 13 16.09 Fair CLR 26.7 21.7 74% 29 75.97 1012.9
01 21:53 S 17 16.09 Fair CLR 26.7 21.7 74% 29 75.92 1012.4
01 20:53 S 19 16.09 Fair CLR 27.2 20.6 67% 29 75.9 1011.8
01 19:53 S 19 16.09 Fair CLR 27.2 20.6 30.6 27.2 67% 29 75.82 1010.9
01 18:53 SE 24 16.09 Fair CLR 27.8 21.1 67% 30 75.82 1010.8
01 17:53 SE 24 16.09 Fair CLR 28.3 20.6 63% 30 75.79 1010.6
01 16:53 SE 24 16.09 Fair CLR 28.9 21.1 63% 31 75.79 1010.7
01 15:53 SE 26 16.09 Fair CLR 28.9 20.6 61% 31 75.84 1011.3
01 14:53 SE 24 16.09 Fair CLR 29.4 20 57% 31 75.92 1012.1
01 13:53 SE 20 16.09 Fair CLR 30 19.4 30 22.8 53% 32 75.95 1012.6
01 12:53 SE 22 16.09 Partly Cloudy SCT045 30 18.9 51% 31 75.97 1012.9
01 11:53 SE 17 16.09 A Few Clouds FEW041 30 20 55% 32 76 1013.4
01 10:53 Calm 16.09 Fair CLR 28.9 18.3 53% 30 76.02 1013.5
01 09:53 NW 7 16.09 Fair CLR 27.2 20.6 67% 29 76.02 1013.7
01 08:53 W 9 16.09 Fair CLR 25 21.1 79% 26 76.02 1013.6
01 07:53 W 9 16.09 Fair CLR 22.8 20.6 23.9 21.7 87% 76.02 1013.7
01 06:53 SW 6 16.09 Fair CLR 21.7 19.4 87% 75.97 1013.0
01 05:53 W 6 16.09 Fair CLR 21.7 19.4 87% 75.95 1012.5
01 04:53 W 7 16.09 Fair CLR 22.8 19.4 81% 75.92 1012.4
01 03:53 SW 7 16.09 Fair CLR 22.8 18.3 76% 75.9 1012.0
01 02:53 W 7 16.09 Fair CLR 23.3 17.8 71% 75.9 1011.9
01 01:53 W 11 16.09 Fair CLR 23.9 17.8 27.8 23.9 69% 25 75.95 1012.4
01 00:53 W 9 16.09 Fair CLR 25 17.8 64% 26 75.95 1012.6
30 23:53 W 9 16.09 Fair CLR 25.6 17.2 60% 27 76 1013.1
30 22:53 W 13 16.09 Fair CLR 26.7 16.7 54% 27 75.95 1012.4
30 21:53 W 17 16.09 Fair CLR 27.8 18.3 56% 29 75.9 1012.0
30 20:53 S 13 16.09 Partly Cloudy SCT060 27.2 20.6 67% 29 75.87 1011.4
30 19:53 S 20 16.09 Mostly Cloudy BKN070 27.2 20 30.6 26.7 65% 29 75.82 1010.9
30 18:53 S 28 G 37 16.09 A Few Clouds FEW065 27.2 20.6 67% 29 75.79 1010.5
30 17:53 S 30 G 37 16.09 A Few Clouds FEW065 28.3 19.4 59% 30 75.77 1010.3
30 16:53 S 24 16.09 Fair CLR 29.4 20.6 59% 32 75.79 1010.5
30 15:53 SE 26 16.09 A Few Clouds FEW065 29.4 20.6 59% 32 75.82 1011.0
30 14:53 SE 22 G 39 16.09 A Few Clouds FEW060 28.9 20.6 61% 31 75.9 1011.8
30 13:53 SE 20 16.09 A Few Clouds FEW050 30.6 20 31.1 23.9 53% 33 75.9 1011.9
30 12:53 SW 15 16.09 Fair CLR 31.1 17.2 43% 32 75.95 1012.5
30 11:53 W 11 16.09 Fair CLR 29.4 16.7 46% 30 76.02 1013.5
30 10:53 SW 11 16.09 Fair CLR 28.9 17.2 49% 29 76.05 1013.9
30 09:53 SW 7 16.09 Fair CLR 26.7 17.8 58% 28 76.02 1013.6
30 08:53 W 6 16.09 Fair CLR 25.6 18.9 67% 27 76 1013.4
30 07:53 SW 7 16.09 Fair CLR 23.9 20.6 25 22.2 82% 24 76.02 1013.6
30 06:53 W 7 16.09 Fair CLR 22.2 19.4 84% 76 1013.2
30 05:53 W 6 16.09 Fair CLR 22.8 18.9 79% 75.95 1012.7
30 04:53 SW 7 16.09 Fair CLR 23.3 19.4 79% 75.97 1012.8
30 03:53 SW 7 16.09 Fair CLR 23.9 20 79% 24 75.97 1012.7
30 02:53 SW 7 16.09 A Few Clouds FEW050 23.9 20.6 82% 24 76 1013.2
30 01:53 W 9 16.09 Fair CLR 25 20.6 26.1 25 77% 26 76.02 1013.6
30 00:53 SW 9 16.09 A Few Clouds FEW041 25 20.6 77% 26 76.07 1014.1
29 23:53 S 9 16.09 Fair CLR 25.6 20.6 74% 27 76.07 1014.4
29 22:53 S 9 16.09 Fair CLR 26.1 20 69% 27 76.07 1014.3
29 21:53 S 13 16.09 Fair CLR 26.1 20 69% 27 76.07 1014.3
29 20:53 S 19 16.09 Fair CLR 26.1 20 69% 27 76 1013.3
29 19:53 S 17 G 30 16.09 Fair CLR 26.1 20 29.4 26.1 69% 27 76 1013.1
29 18:53 SE 20 16.09 Fair CLR 26.7 20 67% 28 75.97 1012.9
29 17:53 SE 24 16.09 Fair CLR 27.8 20.6 65% 30 76 1013.4
29 16:53 SE 24 16.09 Fair CLR 28.3 20 61% 30 76.02 1013.5
Date Time (edt) Wind (kph) Vis. (km) Weather Sky Cond. Air Dwpt Max. Min. Relative Humidity Wind Chill (°C) Heat Index (°C) altimeter (cm) sea level (mb) 1 hr 3 hr 6 hr
6 hour
Temperature (ºC) Pressure Precipitation (cm)